الصفحة الرئيسية
METAR-TAF:

METAR-TAF

مطار :

Four Corners Regional Airport

فارمينغتون, نيومكسيكو, الولايات المتحدة

دائرة عرض: 36-44-37N, خط طول: 108-13-45W, ارتفاع: 1677 متر

مراقبة الطقس الحالي

تاريخ ووقت الإصدار 51 دقيقة قبل الساعة 09:53UTC
ريح 4 عقدة من الشرق/الشمال الشرقي
درجة الحرارة 5°درجة مئوية
الرطوبة 30%
ضغط 1027 hPa
الرؤية: 16.1 كم
سماء صافية

METAR: KFMN 290953Z AUTO 06004KT 10SM CLR 05/M11 A3034 RMK AO2 SLP244 T00501106 PWINO

زمن: 04:44 (10:44 UTC)

توقعات

تاريخ ووقت الإصدار 5ساعات و 23 دقيقة قبل الساعة 05:21UTC
التوقعات صالحة من29 الساعة 06 UTC إلى 30 الساعة 06 UTC
ريح 5 عقدةمن اتجاهات متغيرة
الرؤية: 10 كم
غيوم قليلة على ارتفاع 25000 قدم
من 29 الساعة 0800 UTC
ريح 6 عقدة من الشرق
الرؤية: 10 كم
غيوم قليلة على ارتفاع 25000 قدم
من 29 الساعة 1900 UTC
ريح 8 عقدة من الغرب
الرؤية: 10 كم
سماء صافية
من 30 الساعة 0200 UTC
ريح 5 عقدةمن اتجاهات متغيرة
الرؤية: 10 كم
سماء صافية

TAF: KFMN 290521Z 2906/3006 VRB05KT P6SM FEW250 FM290800 08006KT P6SM FEW250 FM291900 28008KT P6SM SKC FM300200 VRB05KT P6SM SKC

أرصاد الطقس والتوقعات من أكثر من 4000 مطار (تقارير الطقس للمطار METAR والتنبؤ بالطقس بالمطارTAF).

المحطات المتاحة هي النقط الصفراء والحمراء على الخريطة.

حرك المؤشر فوق النقطة لمعرفة اسم المحطة.

ثم انقر لمعرفة أرصاد وتوقعات الطقس.

لتغيير الخارطة: اضغط على الأزرار الخضراء مع رمز الصليب الأسود للتكبير. على الزر الأخضر مع شرطة للتصغير، أو على الأسهم الخضراء للخرائط المجاورة.


METAR-TAF: